sensor_id;sensor_type;location;lat;lon;timestamp;P1;durP1;ratioP1;P2;durP2;ratioP2
22539;SDS011;11436;50.860;4.334;2022-08-01T00:00:24;2.72;;;1.27;;
22539;SDS011;11436;50.860;4.334;2022-08-01T00:02:50;8.80;;;2.00;;
22539;SDS011;11436;50.860;4.334;2022-08-01T00:05:16;4.68;;;1.70;;
22539;SDS011;11436;50.860;4.334;2022-08-01T00:07:42;5.47;;;1.55;;
22539;SDS011;11436;50.860;4.334;2022-08-01T00:10:10;7.82;;;2.05;;
22539;SDS011;11436;50.860;4.334;2022-08-01T00:12:37;4.43;;;1.80;;
22539;SDS011;11436;50.860;4.334;2022-08-01T00:15:04;6.53;;;2.35;;
22539;SDS011;11436;50.860;4.334;2022-08-01T00:17:31;5.82;;;2.47;;
22539;SDS011;11436;50.860;4.334;2022-08-01T00:19:57;6.68;;;3.20;;
22539;SDS011;11436;50.860;4.334;2022-08-01T00:22:23;6.63;;;2.92;;
22539;SDS011;11436;50.860;4.334;2022-08-01T00:24:49;7.55;;;2.65;;
22539;SDS011;11436;50.860;4.334;2022-08-01T00:27:14;10.38;;;2.72;;
22539;SDS011;11436;50.860;4.334;2022-08-01T00:29:40;8.65;;;3.35;;
22539;SDS011;11436;50.860;4.334;2022-08-01T00:32:06;4.60;;;2.90;;
22539;SDS011;11436;50.860;4.334;2022-08-01T00:34:32;5.97;;;2.47;;
22539;SDS011;11436;50.860;4.334;2022-08-01T00:36:58;5.97;;;2.40;;
22539;SDS011;11436;50.860;4.334;2022-08-01T00:39:24;5.60;;;2.40;;
22539;SDS011;11436;50.860;4.334;2022-08-01T00:41:50;5.38;;;2.47;;
22539;SDS011;11436;50.860;4.334;2022-08-01T00:44:15;4.95;;;2.30;;
22539;SDS011;11436;50.860;4.334;2022-08-01T00:46:41;8.98;;;2.60;;
22539;SDS011;11436;50.860;4.334;2022-08-01T00:49:07;7.35;;;2.30;;
22539;SDS011;11436;50.860;4.334;2022-08-01T00:51:33;4.20;;;2.30;;
22539;SDS011;11436;50.860;4.334;2022-08-01T00:53:59;6.25;;;2.13;;
22539;SDS011;11436;50.860;4.334;2022-08-01T00:56:26;6.10;;;2.60;;
22539;SDS011;11436;50.860;4.334;2022-08-01T00:58:53;6.22;;;2.38;;
22539;SDS011;11436;50.860;4.334;2022-08-01T01:01:20;10.45;;;2.50;;
22539;SDS011;11436;50.860;4.334;2022-08-01T01:03:47;6.35;;;2.58;;
22539;SDS011;11436;50.860;4.334;2022-08-01T01:09:15;6.28;;;3.08;;
22539;SDS011;11436;50.860;4.334;2022-08-01T01:11:44;6.50;;;2.85;;
22539;SDS011;11436;50.860;4.334;2022-08-01T01:14:19;7.60;;;4.00;;
22539;SDS011;11436;50.860;4.334;2022-08-01T01:16:58;5.45;;;3.20;;
22539;SDS011;11436;50.860;4.334;2022-08-01T01:19:28;7.85;;;3.97;;
22539;SDS011;11436;50.860;4.334;2022-08-01T01:22:08;6.63;;;4.15;;
22539;SDS011;11436;50.860;4.334;2022-08-01T01:24:41;10.10;;;4.90;;
22539;SDS011;11436;50.860;4.334;2022-08-01T01:27:24;11.25;;;4.30;;
22539;SDS011;11436;50.860;4.334;2022-08-01T01:30:02;8.60;;;4.80;;
22539;SDS011;11436;50.860;4.334;2022-08-01T01:32:33;7.78;;;4.82;;
22539;SDS011;11436;50.860;4.334;2022-08-01T01:35:05;13.48;;;6.30;;
22539;SDS011;11436;50.860;4.334;2022-08-01T01:37:34;12.30;;;7.68;;
22539;SDS011;11436;50.860;4.334;2022-08-01T01:40:02;12.50;;;6.38;;
22539;SDS011;11436;50.860;4.334;2022-08-01T01:42:28;14.45;;;7.20;;
22539;SDS011;11436;50.860;4.334;2022-08-01T01:44:56;16.35;;;7.95;;
22539;SDS011;11436;50.860;4.334;2022-08-01T01:47:23;18.52;;;8.85;;
22539;SDS011;11436;50.860;4.334;2022-08-01T01:49:50;16.50;;;9.07;;
22539;SDS011;11436;50.860;4.334;2022-08-01T01:52:19;17.23;;;9.30;;
22539;SDS011;11436;50.860;4.334;2022-08-01T01:54:47;17.60;;;9.98;;
22539;SDS011;11436;50.860;4.334;2022-08-01T01:57:15;19.08;;;9.30;;
22539;SDS011;11436;50.860;4.334;2022-08-01T01:59:42;18.33;;;9.73;;
22539;SDS011;11436;50.860;4.334;2022-08-01T02:02:11;21.33;;;9.15;;
22539;SDS011;11436;50.860;4.334;2022-08-01T02:04:40;18.52;;;9.18;;
22539;SDS011;11436;50.860;4.334;2022-08-01T02:07:08;18.73;;;9.27;;
22539;SDS011;11436;50.860;4.334;2022-08-01T02:09:35;15.38;;;8.60;;
22539;SDS011;11436;50.860;4.334;2022-08-01T02:12:04;19.77;;;8.65;;
22539;SDS011;11436;50.860;4.334;2022-08-01T02:14:32;14.73;;;8.07;;
22539;SDS011;11436;50.860;4.334;2022-08-01T02:17:00;21.23;;;8.68;;
22539;SDS011;11436;50.860;4.334;2022-08-01T02:19:28;17.20;;;8.82;;
22539;SDS011;11436;50.860;4.334;2022-08-01T02:21:56;17.58;;;8.85;;
22539;SDS011;11436;50.860;4.334;2022-08-01T02:24:36;19.58;;;9.27;;
22539;SDS011;11436;50.860;4.334;2022-08-01T02:27:09;20.63;;;9.77;;
22539;SDS011;11436;50.860;4.334;2022-08-01T02:29:39;23.27;;;10.80;;
22539;SDS011;11436;50.860;4.334;2022-08-01T02:34:46;19.63;;;9.63;;
22539;SDS011;11436;50.860;4.334;2022-08-01T02:37:14;18.08;;;8.77;;
22539;SDS011;11436;50.860;4.334;2022-08-01T02:39:41;19.35;;;9.02;;
22539;SDS011;11436;50.860;4.334;2022-08-01T02:42:08;20.30;;;9.43;;
22539;SDS011;11436;50.860;4.334;2022-08-01T02:44:38;18.88;;;10.18;;
22539;SDS011;11436;50.860;4.334;2022-08-01T02:47:06;18.05;;;9.32;;
22539;SDS011;11436;50.860;4.334;2022-08-01T02:49:45;16.88;;;8.90;;
22539;SDS011;11436;50.860;4.334;2022-08-01T02:52:15;22.00;;;10.10;;
22539;SDS011;11436;50.860;4.334;2022-08-01T02:54:45;14.73;;;8.95;;
22539;SDS011;11436;50.860;4.334;2022-08-01T02:57:14;15.20;;;8.35;;
22539;SDS011;11436;50.860;4.334;2022-08-01T02:59:41;15.68;;;8.48;;
22539;SDS011;11436;50.860;4.334;2022-08-01T03:02:09;13.88;;;8.73;;
22539;SDS011;11436;50.860;4.334;2022-08-01T03:04:37;16.63;;;8.40;;
22539;SDS011;11436;50.860;4.334;2022-08-01T03:07:06;25.38;;;10.02;;
22539;SDS011;11436;50.860;4.334;2022-08-01T03:09:35;20.80;;;8.98;;
22539;SDS011;11436;50.860;4.334;2022-08-01T03:12:04;17.02;;;9.05;;
22539;SDS011;11436;50.860;4.334;2022-08-01T03:14:35;18.92;;;9.15;;
22539;SDS011;11436;50.860;4.334;2022-08-01T03:17:03;18.20;;;9.25;;
22539;SDS011;11436;50.860;4.334;2022-08-01T03:19:30;24.27;;;10.02;;
22539;SDS011;11436;50.860;4.334;2022-08-01T03:21:58;19.95;;;10.43;;
22539;SDS011;11436;50.860;4.334;2022-08-01T03:24:28;17.50;;;10.15;;
22539;SDS011;11436;50.860;4.334;2022-08-01T03:26:56;24.98;;;10.73;;
22539;SDS011;11436;50.860;4.334;2022-08-01T03:29:24;18.50;;;9.38;;
22539;SDS011;11436;50.860;4.334;2022-08-01T03:31:52;20.65;;;9.40;;
22539;SDS011;11436;50.860;4.334;2022-08-01T03:34:18;15.25;;;9.57;;
22539;SDS011;11436;50.860;4.334;2022-08-01T03:36:48;20.17;;;11.32;;
22539;SDS011;11436;50.860;4.334;2022-08-01T03:39:20;25.58;;;11.63;;
22539;SDS011;11436;50.860;4.334;2022-08-01T03:41:54;25.00;;;12.50;;
22539;SDS011;11436;50.860;4.334;2022-08-01T03:44:25;24.05;;;13.00;;
22539;SDS011;11436;50.860;4.334;2022-08-01T03:46:58;28.95;;;14.23;;
22539;SDS011;11436;50.860;4.334;2022-08-01T03:49:29;30.08;;;14.50;;
22539;SDS011;11436;50.860;4.334;2022-08-01T03:51:56;30.75;;;15.93;;
22539;SDS011;11436;50.860;4.334;2022-08-01T03:54:29;27.30;;;15.50;;
22539;SDS011;11436;50.860;4.334;2022-08-01T03:56:58;30.83;;;17.42;;
22539;SDS011;11436;50.860;4.334;2022-08-01T03:59:25;29.45;;;17.42;;
22539;SDS011;11436;50.860;4.334;2022-08-01T04:01:52;40.88;;;19.95;;
22539;SDS011;11436;50.860;4.334;2022-08-01T04:04:18;37.97;;;19.92;;
22539;SDS011;11436;50.860;4.334;2022-08-01T04:06:44;30.90;;;19.02;;
22539;SDS011;11436;50.860;4.334;2022-08-01T04:09:10;39.00;;;20.95;;
22539;SDS011;11436;50.860;4.334;2022-08-01T04:11:37;38.40;;;21.45;;
22539;SDS011;11436;50.860;4.334;2022-08-01T04:14:03;33.08;;;19.95;;
22539;SDS011;11436;50.860;4.334;2022-08-01T04:16:28;40.03;;;20.88;;
22539;SDS011;11436;50.860;4.334;2022-08-01T04:18:54;34.50;;;22.35;;
22539;SDS011;11436;50.860;4.334;2022-08-01T04:21:22;35.25;;;20.65;;
22539;SDS011;11436;50.860;4.334;2022-08-01T04:23:50;32.83;;;20.88;;
22539;SDS011;11436;50.860;4.334;2022-08-01T04:26:17;32.88;;;21.15;;
22539;SDS011;11436;50.860;4.334;2022-08-01T04:28:44;31.63;;;20.27;;
22539;SDS011;11436;50.860;4.334;2022-08-01T04:31:11;39.15;;;22.08;;
22539;SDS011;11436;50.860;4.334;2022-08-01T04:33:41;35.67;;;20.52;;
22539;SDS011;11436;50.860;4.334;2022-08-01T04:36:10;31.63;;;19.98;;
22539;SDS011;11436;50.860;4.334;2022-08-01T04:38:37;33.45;;;19.42;;
22539;SDS011;11436;50.860;4.334;2022-08-01T04:41:05;33.78;;;19.02;;
22539;SDS011;11436;50.860;4.334;2022-08-01T04:43:32;26.42;;;17.58;;
22539;SDS011;11436;50.860;4.334;2022-08-01T04:45:58;29.80;;;17.55;;
22539;SDS011;11436;50.860;4.334;2022-08-01T04:48:28;29.33;;;16.65;;
22539;SDS011;11436;50.860;4.334;2022-08-01T04:50:55;32.50;;;17.90;;
22539;SDS011;11436;50.860;4.334;2022-08-01T04:53:21;27.38;;;16.05;;
22539;SDS011;11436;50.860;4.334;2022-08-01T04:55:47;22.80;;;15.48;;
22539;SDS011;11436;50.860;4.334;2022-08-01T04:58:16;23.17;;;15.68;;
22539;SDS011;11436;50.860;4.334;2022-08-01T05:00:42;23.02;;;14.80;;
22539;SDS011;11436;50.860;4.334;2022-08-01T05:03:08;22.45;;;15.90;;
22539;SDS011;11436;50.860;4.334;2022-08-01T05:05:33;19.92;;;13.75;;
22539;SDS011;11436;50.860;4.334;2022-08-01T05:08:00;23.83;;;13.40;;
22539;SDS011;11436;50.860;4.334;2022-08-01T05:10:26;18.98;;;14.15;;
22539;SDS011;11436;50.860;4.334;2022-08-01T05:12:52;20.98;;;13.27;;
22539;SDS011;11436;50.860;4.334;2022-08-01T05:15:18;18.83;;;14.15;;
22539;SDS011;11436;50.860;4.334;2022-08-01T05:17:44;20.50;;;14.13;;
22539;SDS011;11436;50.860;4.334;2022-08-01T05:20:10;19.25;;;13.35;;
22539;SDS011;11436;50.860;4.334;2022-08-01T05:22:37;22.15;;;12.95;;
22539;SDS011;11436;50.860;4.334;2022-08-01T05:25:03;19.23;;;13.05;;
22539;SDS011;11436;50.860;4.334;2022-08-01T05:27:32;18.70;;;11.55;;
22539;SDS011;11436;50.860;4.334;2022-08-01T05:30:03;18.00;;;12.45;;
22539;SDS011;11436;50.860;4.334;2022-08-01T05:32:29;20.30;;;11.60;;
22539;SDS011;11436;50.860;4.334;2022-08-01T05:34:56;18.88;;;11.15;;
22539;SDS011;11436;50.860;4.334;2022-08-01T05:37:22;12.50;;;9.25;;
22539;SDS011;11436;50.860;4.334;2022-08-01T05:39:48;13.15;;;9.55;;
22539;SDS011;11436;50.860;4.334;2022-08-01T05:42:13;12.00;;;9.20;;
22539;SDS011;11436;50.860;4.334;2022-08-01T05:44:39;12.70;;;9.57;;
22539;SDS011;11436;50.860;4.334;2022-08-01T05:47:05;14.68;;;9.68;;
22539;SDS011;11436;50.860;4.334;2022-08-01T05:49:31;11.85;;;9.18;;
22539;SDS011;11436;50.860;4.334;2022-08-01T05:51:56;13.63;;;8.63;;
22539;SDS011;11436;50.860;4.334;2022-08-01T05:54:22;12.52;;;9.35;;
22539;SDS011;11436;50.860;4.334;2022-08-01T05:56:48;10.63;;;8.07;;
22539;SDS011;11436;50.860;4.334;2022-08-01T05:59:13;14.30;;;8.80;;
22539;SDS011;11436;50.860;4.334;2022-08-01T06:01:39;16.60;;;8.93;;
22539;SDS011;11436;50.860;4.334;2022-08-01T06:04:05;11.50;;;8.63;;
22539;SDS011;11436;50.860;4.334;2022-08-01T06:06:30;12.27;;;8.48;;
22539;SDS011;11436;50.860;4.334;2022-08-01T06:08:56;12.00;;;8.25;;
22539;SDS011;11436;50.860;4.334;2022-08-01T06:11:22;12.93;;;8.25;;
22539;SDS011;11436;50.860;4.334;2022-08-01T06:13:47;15.18;;;7.72;;
22539;SDS011;11436;50.860;4.334;2022-08-01T06:16:13;11.52;;;7.55;;
22539;SDS011;11436;50.860;4.334;2022-08-01T06:18:39;10.82;;;7.93;;
22539;SDS011;11436;50.860;4.334;2022-08-01T06:21:05;11.63;;;7.57;;
22539;SDS011;11436;50.860;4.334;2022-08-01T06:23:31;9.27;;;6.93;;
22539;SDS011;11436;50.860;4.334;2022-08-01T06:25:57;8.77;;;6.32;;
22539;SDS011;11436;50.860;4.334;2022-08-01T06:28:23;10.40;;;6.30;;
22539;SDS011;11436;50.860;4.334;2022-08-01T06:30:49;9.18;;;6.07;;
22539;SDS011;11436;50.860;4.334;2022-08-01T06:33:15;9.95;;;8.23;;
22539;SDS011;11436;50.860;4.334;2022-08-01T06:35:41;9.27;;;6.32;;
22539;SDS011;11436;50.860;4.334;2022-08-01T06:38:06;10.02;;;5.38;;
22539;SDS011;11436;50.860;4.334;2022-08-01T06:40:32;6.05;;;5.30;;
22539;SDS011;11436;50.860;4.334;2022-08-01T06:42:58;4.43;;;3.45;;
22539;SDS011;11436;50.860;4.334;2022-08-01T06:45:24;5.47;;;4.78;;
22539;SDS011;11436;50.860;4.334;2022-08-01T06:47:51;7.97;;;4.72;;
22539;SDS011;11436;50.860;4.334;2022-08-01T06:50:18;6.55;;;4.43;;
22539;SDS011;11436;50.860;4.334;2022-08-01T06:52:44;10.00;;;4.65;;
22539;SDS011;11436;50.860;4.334;2022-08-01T06:55:10;6.32;;;4.25;;
22539;SDS011;11436;50.860;4.334;2022-08-01T06:57:36;7.43;;;4.40;;
22539;SDS011;11436;50.860;4.334;2022-08-01T07:00:09;5.35;;;4.30;;
22539;SDS011;11436;50.860;4.334;2022-08-01T07:02:37;6.25;;;4.80;;
22539;SDS011;11436;50.860;4.334;2022-08-01T07:05:03;6.05;;;4.03;;
22539;SDS011;11436;50.860;4.334;2022-08-01T07:07:29;9.13;;;4.22;;
22539;SDS011;11436;50.860;4.334;2022-08-01T07:09:56;7.90;;;4.18;;
22539;SDS011;11436;50.860;4.334;2022-08-01T07:12:22;5.20;;;3.83;;
22539;SDS011;11436;50.860;4.334;2022-08-01T07:14:47;7.30;;;3.80;;
22539;SDS011;11436;50.860;4.334;2022-08-01T07:17:13;7.13;;;3.33;;
22539;SDS011;11436;50.860;4.334;2022-08-01T07:19:39;3.88;;;2.67;;
22539;SDS011;11436;50.860;4.334;2022-08-01T07:22:04;3.92;;;2.85;;
22539;SDS011;11436;50.860;4.334;2022-08-01T07:24:30;4.00;;;2.90;;
22539;SDS011;11436;50.860;4.334;2022-08-01T07:26:56;4.95;;;2.67;;
22539;SDS011;11436;50.860;4.334;2022-08-01T07:29:26;5.53;;;2.88;;
22539;SDS011;11436;50.860;4.334;2022-08-01T07:31:52;3.15;;;2.85;;
22539;SDS011;11436;50.860;4.334;2022-08-01T07:34:19;3.53;;;2.88;;
22539;SDS011;11436;50.860;4.334;2022-08-01T07:36:45;2.95;;;2.70;;
22539;SDS011;11436;50.860;4.334;2022-08-01T07:39:10;3.97;;;2.67;;
22539;SDS011;11436;50.860;4.334;2022-08-01T07:41:36;4.32;;;2.00;;
22539;SDS011;11436;50.860;4.334;2022-08-01T07:44:02;2.80;;;1.80;;
22539;SDS011;11436;50.860;4.334;2022-08-01T07:46:28;3.33;;;1.85;;
22539;SDS011;11436;50.860;4.334;2022-08-01T07:48:55;4.38;;;1.70;;
22539;SDS011;11436;50.860;4.334;2022-08-01T07:51:22;5.18;;;2.55;;
22539;SDS011;11436;50.860;4.334;2022-08-01T07:53:49;6.78;;;1.67;;
22539;SDS011;11436;50.860;4.334;2022-08-01T07:56:15;2.85;;;1.90;;
22539;SDS011;11436;50.860;4.334;2022-08-01T07:58:41;2.22;;;1.50;;
22539;SDS011;11436;50.860;4.334;2022-08-01T08:01:07;1.92;;;1.52;;
22539;SDS011;11436;50.860;4.334;2022-08-01T08:03:32;3.22;;;1.80;;
22539;SDS011;11436;50.860;4.334;2022-08-01T08:05:58;4.72;;;1.77;;
22539;SDS011;11436;50.860;4.334;2022-08-01T08:08:24;7.65;;;1.83;;
22539;SDS011;11436;50.860;4.334;2022-08-01T08:10:50;3.22;;;1.52;;
22539;SDS011;11436;50.860;4.334;2022-08-01T08:13:16;1.90;;;1.50;;
22539;SDS011;11436;50.860;4.334;2022-08-01T08:15:41;3.15;;;1.63;;
22539;SDS011;11436;50.860;4.334;2022-08-01T08:18:07;2.10;;;1.70;;
22539;SDS011;11436;50.860;4.334;2022-08-01T08:20:33;8.27;;;2.00;;
22539;SDS011;11436;50.860;4.334;2022-08-01T08:22:59;3.13;;;1.40;;
22539;SDS011;11436;50.860;4.334;2022-08-01T08:25:25;3.20;;;1.65;;
22539;SDS011;11436;50.860;4.334;2022-08-01T08:27:51;2.65;;;1.83;;
22539;SDS011;11436;50.860;4.334;2022-08-01T08:30:17;4.07;;;1.70;;
22539;SDS011;11436;50.860;4.334;2022-08-01T08:32:43;2.40;;;1.42;;
22539;SDS011;11436;50.860;4.334;2022-08-01T08:35:08;5.75;;;1.85;;
22539;SDS011;11436;50.860;4.334;2022-08-01T08:37:35;4.03;;;1.80;;
22539;SDS011;11436;50.860;4.334;2022-08-01T08:40:05;2.60;;;2.20;;
22539;SDS011;11436;50.860;4.334;2022-08-01T08:42:31;2.60;;;2.33;;
22539;SDS011;11436;50.860;4.334;2022-08-01T08:44:58;3.03;;;2.58;;
22539;SDS011;11436;50.860;4.334;2022-08-01T08:47:24;4.85;;;2.20;;
22539;SDS011;11436;50.860;4.334;2022-08-01T08:49:52;2.97;;;2.63;;
22539;SDS011;11436;50.860;4.334;2022-08-01T08:52:20;2.30;;;1.98;;
22539;SDS011;11436;50.860;4.334;2022-08-01T08:54:48;3.65;;;1.90;;
22539;SDS011;11436;50.860;4.334;2022-08-01T08:57:15;3.10;;;2.17;;
22539;SDS011;11436;50.860;4.334;2022-08-01T08:59:43;2.45;;;2.25;;
22539;SDS011;11436;50.860;4.334;2022-08-01T09:02:10;2.50;;;1.77;;
22539;SDS011;11436;50.860;4.334;2022-08-01T09:04:37;4.45;;;1.90;;
22539;SDS011;11436;50.860;4.334;2022-08-01T09:07:04;2.08;;;1.75;;
22539;SDS011;11436;50.860;4.334;2022-08-01T09:09:31;2.28;;;1.90;;
22539;SDS011;11436;50.860;4.334;2022-08-01T09:11:56;5.05;;;1.75;;
22539;SDS011;11436;50.860;4.334;2022-08-01T09:14:22;2.40;;;1.50;;
22539;SDS011;11436;50.860;4.334;2022-08-01T09:19:39;2.95;;;1.60;;
22539;SDS011;11436;50.860;4.334;2022-08-01T09:22:11;1.67;;;1.27;;
22539;SDS011;11436;50.860;4.334;2022-08-01T09:24:39;4.03;;;1.20;;
22539;SDS011;11436;50.860;4.334;2022-08-01T09:27:19;1.05;;;0.95;;
22539;SDS011;11436;50.860;4.334;2022-08-01T09:29:45;1.60;;;0.90;;
22539;SDS011;11436;50.860;4.334;2022-08-01T09:32:11;1.92;;;1.02;;
22539;SDS011;11436;50.860;4.334;2022-08-01T09:34:37;2.00;;;0.90;;
22539;SDS011;11436;50.860;4.334;2022-08-01T09:37:03;2.70;;;1.10;;
22539;SDS011;11436;50.860;4.334;2022-08-01T09:39:35;6.15;;;0.60;;
22539;SDS011;11436;50.860;4.334;2022-08-01T09:44:52;5.97;;;1.00;;
22539;SDS011;11436;50.860;4.334;2022-08-01T09:47:21;3.58;;;1.35;;
22539;SDS011;11436;50.860;4.334;2022-08-01T09:50:01;3.47;;;0.70;;
22539;SDS011;11436;50.860;4.334;2022-08-01T09:52:27;2.78;;;0.80;;
22539;SDS011;11436;50.860;4.334;2022-08-01T09:54:54;2.00;;;0.73;;
22539;SDS011;11436;50.860;4.334;2022-08-01T09:57:21;1.90;;;0.70;;
22539;SDS011;11436;50.860;4.334;2022-08-01T09:59:48;2.63;;;0.90;;
22539;SDS011;11436;50.860;4.334;2022-08-01T10:05:03;1.75;;;0.73;;
22539;SDS011;11436;50.860;4.334;2022-08-01T10:07:31;1.58;;;0.75;;
22539;SDS011;11436;50.860;4.334;2022-08-01T10:10:18;0.57;;;0.52;;
22539;SDS011;11436;50.860;4.334;2022-08-01T10:12:43;1.35;;;0.65;;
22539;SDS011;11436;50.860;4.334;2022-08-01T10:15:09;0.85;;;0.50;;
22539;SDS011;11436;50.860;4.334;2022-08-01T10:17:37;2.40;;;0.80;;
22539;SDS011;11436;50.860;4.334;2022-08-01T10:20:04;0.50;;;0.50;;
22539;SDS011;11436;50.860;4.334;2022-08-01T10:22:31;2.83;;;0.95;;
22539;SDS011;11436;50.860;4.334;2022-08-01T10:25:00;1.17;;;0.57;;
22539;SDS011;11436;50.860;4.334;2022-08-01T10:27:29;4.00;;;1.95;;
22539;SDS011;11436;50.860;4.334;2022-08-01T10:29:59;3.65;;;0.50;;
22539;SDS011;11436;50.860;4.334;2022-08-01T10:32:29;1.13;;;0.70;;
22539;SDS011;11436;50.860;4.334;2022-08-01T10:34:55;1.67;;;0.80;;
22539;SDS011;11436;50.860;4.334;2022-08-01T10:37:22;2.67;;;0.60;;
22539;SDS011;11436;50.860;4.334;2022-08-01T10:39:48;3.05;;;0.73;;
22539;SDS011;11436;50.860;4.334;2022-08-01T10:42:16;3.42;;;0.65;;
22539;SDS011;11436;50.860;4.334;2022-08-01T10:44:43;1.77;;;0.75;;
22539;SDS011;11436;50.860;4.334;2022-08-01T10:47:13;1.10;;;0.70;;
22539;SDS011;11436;50.860;4.334;2022-08-01T10:50:44;2.50;;;0.63;;
22539;SDS011;11436;50.860;4.334;2022-08-01T10:53:06;3.55;;;0.75;;
22539;SDS011;11436;50.860;4.334;2022-08-01T10:58:34;1.48;;;0.60;;
22539;SDS011;11436;50.860;4.334;2022-08-01T11:04:01;1.13;;;0.68;;
22539;SDS011;11436;50.860;4.334;2022-08-01T11:08:58;2.90;;;0.70;;
22539;SDS011;11436;50.860;4.334;2022-08-01T11:11:27;1.88;;;0.50;;
22539;SDS011;11436;50.860;4.334;2022-08-01T11:14:01;1.55;;;0.57;;
22539;SDS011;11436;50.860;4.334;2022-08-01T11:16:40;0.68;;;0.60;;
22539;SDS011;11436;50.860;4.334;2022-08-01T11:19:06;1.27;;;0.77;;
22539;SDS011;11436;50.860;4.334;2022-08-01T11:27:17;1.25;;;0.68;;
22539;SDS011;11436;50.860;4.334;2022-08-01T11:30:21;1.33;;;0.70;;
22539;SDS011;11436;50.860;4.334;2022-08-01T11:37:46;1.85;;;0.65;;
22539;SDS011;11436;50.860;4.334;2022-08-01T11:42:50;1.48;;;0.70;;
22539;SDS011;11436;50.860;4.334;2022-08-01T11:45:50;1.20;;;0.73;;
22539;SDS011;11436;50.860;4.334;2022-08-01T11:48:21;3.92;;;0.70;;
22539;SDS011;11436;50.860;4.334;2022-08-01T11:50:49;2.45;;;0.77;;
22539;SDS011;11436;50.860;4.334;2022-08-01T11:53:16;3.05;;;0.85;;
22539;SDS011;11436;50.860;4.334;2022-08-01T11:55:53;3.05;;;0.98;;
22539;SDS011;11436;50.860;4.334;2022-08-01T11:58:23;3.30;;;0.63;;
22539;SDS011;11436;50.860;4.334;2022-08-01T12:00:53;1.08;;;0.70;;
22539;SDS011;11436;50.860;4.334;2022-08-01T12:03:24;1.55;;;0.68;;
22539;SDS011;11436;50.860;4.334;2022-08-01T12:08:28;1.30;;;0.70;;
22539;SDS011;11436;50.860;4.334;2022-08-01T12:10:57;1.17;;;0.63;;
22539;SDS011;11436;50.860;4.334;2022-08-01T12:13:24;1.38;;;0.80;;
22539;SDS011;11436;50.860;4.334;2022-08-01T12:15:51;2.85;;;0.90;;
22539;SDS011;11436;50.860;4.334;2022-08-01T12:18:17;3.08;;;0.95;;
22539;SDS011;11436;50.860;4.334;2022-08-01T12:20:44;4.10;;;0.80;;
22539;SDS011;11436;50.860;4.334;2022-08-01T12:23:12;2.05;;;0.80;;
22539;SDS011;11436;50.860;4.334;2022-08-01T12:25:38;1.40;;;0.70;;
22539;SDS011;11436;50.860;4.334;2022-08-01T12:28:05;1.95;;;0.70;;
22539;SDS011;11436;50.860;4.334;2022-08-01T12:30:33;4.25;;;0.80;;
22539;SDS011;11436;50.860;4.334;2022-08-01T12:33:00;2.70;;;1.10;;
22539;SDS011;11436;50.860;4.334;2022-08-01T12:35:28;2.83;;;0.88;;
22539;SDS011;11436;50.860;4.334;2022-08-01T12:38:01;1.05;;;0.68;;
22539;SDS011;11436;50.860;4.334;2022-08-01T12:40:51;2.20;;;1.00;;
22539;SDS011;11436;50.860;4.334;2022-08-01T12:43:18;1.85;;;0.88;;
22539;SDS011;11436;50.860;4.334;2022-08-01T12:45:47;2.38;;;0.88;;
22539;SDS011;11436;50.860;4.334;2022-08-01T12:48:15;1.88;;;0.75;;
22539;SDS011;11436;50.860;4.334;2022-08-01T12:50:45;1.80;;;0.80;;
22539;SDS011;11436;50.860;4.334;2022-08-01T12:53:13;5.95;;;0.98;;
22539;SDS011;11436;50.860;4.334;2022-08-01T12:55:43;4.03;;;1.05;;
22539;SDS011;11436;50.860;4.334;2022-08-01T12:58:12;1.42;;;0.95;;
22539;SDS011;11436;50.860;4.334;2022-08-01T13:00:40;4.07;;;1.00;;
22539;SDS011;11436;50.860;4.334;2022-08-01T13:03:16;2.63;;;1.20;;
22539;SDS011;11436;50.860;4.334;2022-08-01T13:05:45;2.78;;;0.90;;
22539;SDS011;11436;50.860;4.334;2022-08-01T13:08:32;4.03;;;0.68;;
22539;SDS011;11436;50.860;4.334;2022-08-01T13:13:38;4.07;;;1.20;;
22539;SDS011;11436;50.860;4.334;2022-08-01T13:16:07;7.63;;;1.20;;
22539;SDS011;11436;50.860;4.334;2022-08-01T13:18:34;1.90;;;0.80;;
22539;SDS011;11436;50.860;4.334;2022-08-01T13:21:11;3.85;;;0.63;;
22539;SDS011;11436;50.860;4.334;2022-08-01T13:24:00;2.38;;;0.88;;
22539;SDS011;11436;50.860;4.334;2022-08-01T13:29:44;3.00;;;0.90;;
22539;SDS011;11436;50.860;4.334;2022-08-01T13:32:18;2.35;;;0.90;;
22539;SDS011;11436;50.860;4.334;2022-08-01T13:34:45;2.60;;;0.70;;
22539;SDS011;11436;50.860;4.334;2022-08-01T13:37:11;2.85;;;0.88;;
22539;SDS011;11436;50.860;4.334;2022-08-01T13:39:37;4.03;;;0.90;;
22539;SDS011;11436;50.860;4.334;2022-08-01T13:42:09;0.98;;;0.70;;
22539;SDS011;11436;50.860;4.334;2022-08-01T13:44:39;1.77;;;0.63;;
22539;SDS011;11436;50.860;4.334;2022-08-01T13:49:37;2.05;;;0.93;;
22539;SDS011;11436;50.860;4.334;2022-08-01T13:52:03;4.18;;;0.80;;
22539;SDS011;11436;50.860;4.334;2022-08-01T13:54:37;2.60;;;1.00;;
22539;SDS011;11436;50.860;4.334;2022-08-01T13:57:03;4.07;;;1.58;;
22539;SDS011;11436;50.860;4.334;2022-08-01T13:59:29;5.80;;;0.98;;
22539;SDS011;11436;50.860;4.334;2022-08-01T14:01:55;2.67;;;0.75;;
22539;SDS011;11436;50.860;4.334;2022-08-01T14:04:21;2.90;;;0.77;;
22539;SDS011;11436;50.860;4.334;2022-08-01T14:06:47;3.63;;;0.82;;
22539;SDS011;11436;50.860;4.334;2022-08-01T14:09:13;1.33;;;0.75;;
22539;SDS011;11436;50.860;4.334;2022-08-01T14:11:41;2.92;;;0.70;;
22539;SDS011;11436;50.860;4.334;2022-08-01T14:14:08;4.85;;;0.70;;
22539;SDS011;11436;50.860;4.334;2022-08-01T14:16:34;3.40;;;0.60;;
22539;SDS011;11436;50.860;4.334;2022-08-01T14:19:02;3.28;;;1.05;;
22539;SDS011;11436;50.860;4.334;2022-08-01T14:21:28;3.30;;;0.73;;
22539;SDS011;11436;50.860;4.334;2022-08-01T14:23:54;0.88;;;0.65;;
22539;SDS011;11436;50.860;4.334;2022-08-01T14:26:20;2.22;;;0.70;;
22539;SDS011;11436;50.860;4.334;2022-08-01T14:28:46;0.98;;;0.70;;
22539;SDS011;11436;50.860;4.334;2022-08-01T14:31:12;1.63;;;0.70;;
22539;SDS011;11436;50.860;4.334;2022-08-01T14:33:37;1.65;;;0.80;;
22539;SDS011;11436;50.860;4.334;2022-08-01T14:36:03;5.20;;;1.00;;
22539;SDS011;11436;50.860;4.334;2022-08-01T14:38:29;2.17;;;0.85;;
22539;SDS011;11436;50.860;4.334;2022-08-01T14:40:55;1.30;;;0.70;;
22539;SDS011;11436;50.860;4.334;2022-08-01T14:43:21;3.33;;;1.00;;
22539;SDS011;11436;50.860;4.334;2022-08-01T14:45:47;3.33;;;0.93;;
22539;SDS011;11436;50.860;4.334;2022-08-01T14:48:18;3.30;;;0.70;;
22539;SDS011;11436;50.860;4.334;2022-08-01T14:50:43;2.28;;;0.90;;
22539;SDS011;11436;50.860;4.334;2022-08-01T14:53:09;3.10;;;0.90;;
22539;SDS011;11436;50.860;4.334;2022-08-01T14:55:35;2.78;;;0.70;;
22539;SDS011;11436;50.860;4.334;2022-08-01T14:58:01;2.78;;;0.80;;
22539;SDS011;11436;50.860;4.334;2022-08-01T15:00:27;2.78;;;0.93;;
22539;SDS011;11436;50.860;4.334;2022-08-01T15:02:54;1.10;;;0.68;;
22539;SDS011;11436;50.860;4.334;2022-08-01T15:05:20;4.43;;;0.70;;
22539;SDS011;11436;50.860;4.334;2022-08-01T15:07:46;5.15;;;1.00;;
22539;SDS011;11436;50.860;4.334;2022-08-01T15:10:12;5.65;;;0.75;;
22539;SDS011;11436;50.860;4.334;2022-08-01T15:12:39;1.00;;;0.65;;
22539;SDS011;11436;50.860;4.334;2022-08-01T15:15:05;1.83;;;0.70;;
22539;SDS011;11436;50.860;4.334;2022-08-01T15:17:31;1.58;;;0.73;;
22539;SDS011;11436;50.860;4.334;2022-08-01T15:19:59;7.93;;;0.80;;
22539;SDS011;11436;50.860;4.334;2022-08-01T15:22:27;1.17;;;0.68;;
22539;SDS011;11436;50.860;4.334;2022-08-01T15:24:54;4.32;;;0.88;;
22539;SDS011;11436;50.860;4.334;2022-08-01T15:27:21;2.72;;;0.80;;
22539;SDS011;11436;50.860;4.334;2022-08-01T15:29:47;2.50;;;1.05;;
22539;SDS011;11436;50.860;4.334;2022-08-01T15:32:14;1.60;;;0.75;;